createdAt,value
2023-03-06T00:00:54.238Z,3.30
2023-03-06T00:03:23.287Z,2.90
2023-03-06T00:05:51.786Z,2.80
2023-03-06T00:08:20.022Z,4.00
2023-03-06T00:10:48.148Z,3.00
2023-03-06T00:13:19.329Z,3.70
2023-03-06T00:15:48.777Z,3.10
2023-03-06T00:18:17.293Z,3.50
2023-03-06T00:20:46.281Z,3.20
2023-03-06T00:23:14.561Z,3.80
2023-03-06T00:25:44.699Z,3.70
2023-03-06T00:28:14.958Z,3.40
2023-03-06T00:30:44.309Z,3.80
2023-03-06T00:35:41.409Z,3.80
2023-03-06T00:38:12.480Z,3.90
2023-03-06T00:40:40.770Z,3.60
2023-03-06T00:43:09.064Z,4.00
2023-03-06T00:45:37.633Z,4.30
2023-03-06T00:48:05.978Z,4.90
2023-03-06T00:50:35.535Z,4.20
2023-03-06T00:53:03.712Z,4.00
2023-03-06T00:55:33.679Z,4.60
2023-03-06T00:58:02.154Z,4.00
2023-03-06T01:00:30.442Z,3.90
2023-03-06T01:02:58.522Z,4.30
2023-03-06T01:05:26.897Z,3.60
2023-03-06T01:08:05.454Z,4.40
2023-03-06T01:10:34.038Z,4.40
2023-03-06T01:13:02.200Z,3.90
2023-03-06T01:15:30.474Z,4.30
2023-03-06T01:17:59.365Z,4.00
2023-03-06T01:20:28.268Z,3.80
2023-03-06T01:22:56.751Z,3.90
2023-03-06T01:25:26.861Z,4.10
2023-03-06T01:27:55.150Z,5.30
2023-03-06T01:30:23.515Z,5.80
2023-03-06T01:32:51.967Z,5.40
2023-03-06T01:35:20.113Z,5.40
2023-03-06T01:37:51.835Z,5.20
2023-03-06T01:40:20.124Z,4.70
2023-03-06T01:42:49.826Z,4.10
2023-03-06T01:45:18.207Z,4.10
2023-03-06T01:47:46.618Z,3.90
2023-03-06T01:50:15.269Z,4.00
2023-03-06T01:52:52.814Z,4.30
2023-03-06T01:55:25.360Z,4.60
2023-03-06T01:57:58.030Z,4.40
2023-03-06T02:00:28.493Z,3.70
2023-03-06T02:03:11.066Z,3.30
2023-03-06T02:05:41.790Z,3.90
2023-03-06T02:08:12.481Z,3.50
2023-03-06T02:11:02.708Z,3.60
2023-03-06T02:13:31.504Z,3.80
2023-03-06T02:16:00.205Z,3.80
2023-03-06T02:18:29.595Z,3.10
2023-03-06T02:21:01.973Z,3.50
2023-03-06T02:24:13.786Z,3.10
2023-03-06T02:26:42.968Z,2.80
2023-03-06T02:29:11.765Z,2.90
2023-03-06T02:31:39.934Z,3.10
2023-03-06T02:34:14.312Z,3.00
2023-03-06T02:36:49.882Z,3.00
2023-03-06T02:39:25.985Z,2.70
2023-03-06T02:41:54.849Z,2.50
2023-03-06T02:44:24.359Z,3.10
2023-03-06T02:46:52.599Z,2.80
2023-03-06T02:49:20.700Z,2.90
2023-03-06T02:51:48.782Z,3.20
2023-03-06T02:54:18.502Z,3.20
2023-03-06T02:56:47.163Z,3.20
2023-03-06T02:59:15.353Z,3.20
2023-03-06T03:01:43.754Z,2.80
2023-03-06T03:04:11.756Z,3.50
2023-03-06T03:06:40.431Z,3.10
2023-03-06T03:09:08.692Z,3.00
2023-03-06T03:11:37.027Z,3.10
2023-03-06T03:14:05.657Z,3.30
2023-03-06T03:16:33.992Z,3.90
2023-03-06T03:19:02.167Z,3.20
2023-03-06T03:21:30.288Z,2.70
2023-03-06T03:23:58.532Z,3.30
2023-03-06T03:26:28.230Z,3.10
2023-03-06T03:29:16.785Z,2.70
2023-03-06T03:31:44.953Z,3.20
2023-03-06T03:34:13.587Z,3.30
2023-03-06T03:36:42.029Z,3.00
2023-03-06T03:39:10.840Z,3.70
2023-03-06T03:41:39.311Z,3.80
2023-03-06T03:44:09.822Z,3.30
2023-03-06T03:46:38.844Z,3.70
2023-03-06T03:49:10.609Z,2.80
2023-03-06T03:51:38.938Z,3.40
2023-03-06T03:54:07.345Z,3.00
2023-03-06T03:56:40.941Z,3.40
2023-03-06T03:59:13.584Z,2.80
2023-03-06T04:01:48.432Z,3.10
2023-03-06T04:04:16.925Z,2.90
2023-03-06T04:06:45.794Z,3.20
2023-03-06T04:09:14.299Z,2.90
2023-03-06T04:11:42.930Z,2.60
2023-03-06T04:14:11.272Z,3.90
2023-03-06T04:16:39.309Z,3.30
2023-03-06T04:19:07.965Z,2.90
2023-03-06T04:21:36.201Z,3.10
2023-03-06T04:24:04.774Z,3.20
2023-03-06T04:26:32.881Z,3.50
2023-03-06T04:29:01.664Z,4.00
2023-03-06T04:31:29.956Z,3.40
2023-03-06T04:33:58.291Z,3.50
2023-03-06T04:36:28.720Z,3.10
2023-03-06T04:39:00.046Z,3.10
2023-03-06T04:41:28.465Z,3.10
2023-03-06T04:43:56.870Z,3.60
2023-03-06T04:46:25.048Z,3.40
2023-03-06T04:48:53.256Z,4.00
2023-03-06T04:51:21.420Z,5.30
2023-03-06T04:53:52.515Z,46.10
2023-03-06T04:56:20.596Z,43.50
2023-03-06T04:58:48.748Z,23.10
2023-03-06T05:01:17.383Z,11.10
2023-03-06T05:03:45.717Z,4.80
2023-03-06T05:06:13.992Z,5.20
2023-03-06T05:08:42.486Z,4.20
2023-03-06T05:11:10.537Z,3.70
2023-03-06T05:13:38.625Z,3.80
2023-03-06T05:16:07.842Z,3.30
2023-03-06T05:18:36.577Z,3.60
2023-03-06T05:21:06.000Z,2.50
2023-03-06T05:23:37.064Z,3.00
2023-03-06T05:26:11.767Z,3.00
2023-03-06T05:28:40.769Z,3.40
2023-03-06T05:31:08.862Z,3.00
2023-03-06T05:33:38.745Z,3.80
2023-03-06T05:36:09.396Z,4.10
2023-03-06T05:38:38.897Z,3.20
2023-03-06T05:41:07.604Z,3.00
2023-03-06T05:43:35.868Z,3.50
2023-03-06T05:46:05.780Z,4.10
2023-03-06T05:48:35.791Z,3.60
2023-03-06T05:51:05.266Z,4.50
2023-03-06T05:56:04.512Z,4.90
2023-03-06T05:58:33.717Z,4.10
2023-03-06T06:03:36.376Z,5.30
2023-03-06T06:06:05.987Z,6.00
2023-03-06T06:08:34.488Z,6.00
2023-03-06T06:11:04.834Z,4.70
2023-03-06T06:13:33.328Z,5.60
2023-03-06T06:16:16.011Z,6.40
2023-03-06T06:18:44.595Z,8.90
2023-03-06T06:21:14.816Z,5.20
2023-03-06T06:23:43.413Z,6.00
2023-03-06T06:26:11.897Z,4.90
2023-03-06T06:28:40.158Z,6.20
2023-03-06T06:31:12.707Z,6.20
2023-03-06T06:33:41.831Z,6.80
2023-03-06T06:36:18.494Z,6.90
2023-03-06T06:38:47.048Z,6.70
2023-03-06T06:44:08.816Z,6.20
2023-03-06T06:51:54.197Z,7.10
2023-03-06T06:54:22.449Z,6.30
2023-03-06T06:56:50.800Z,7.00
2023-03-06T06:59:20.347Z,7.20
2023-03-06T07:01:48.723Z,6.90
2023-03-06T07:04:18.106Z,7.20
2023-03-06T07:06:46.466Z,7.50
2023-03-06T07:09:14.961Z,7.70
2023-03-06T07:11:42.957Z,7.30
2023-03-06T07:14:11.001Z,7.20
2023-03-06T07:16:39.819Z,6.60
2023-03-06T07:19:08.800Z,6.30
2023-03-06T07:24:05.257Z,6.20
2023-03-06T07:26:34.853Z,5.60
2023-03-06T07:29:04.567Z,6.80
2023-03-06T07:31:32.790Z,5.70
2023-03-06T07:34:02.514Z,6.10
2023-03-06T07:36:34.655Z,6.00
2023-03-06T07:39:02.981Z,5.80
2023-03-06T07:41:31.081Z,6.50
2023-03-06T07:43:59.747Z,5.90
2023-03-06T07:46:28.495Z,5.90
2023-03-06T07:48:56.674Z,7.40
2023-03-06T07:51:25.432Z,6.30
2023-03-06T07:53:53.780Z,5.90
2023-03-06T07:56:21.895Z,5.70
2023-03-06T07:58:49.926Z,6.20
2023-03-06T08:01:20.893Z,6.20
2023-03-06T08:03:50.268Z,6.60
2023-03-06T08:06:23.938Z,6.40
2023-03-06T08:08:54.398Z,6.50
2023-03-06T08:11:25.999Z,5.20
2023-03-06T08:13:55.318Z,6.00
2023-03-06T08:16:26.499Z,5.80
2023-03-06T08:18:55.390Z,6.10
2023-03-06T08:21:28.503Z,6.30
2023-03-06T08:23:57.071Z,6.30
2023-03-06T08:26:29.019Z,5.60
2023-03-06T08:28:59.223Z,5.00
2023-03-06T08:31:31.535Z,4.90
2023-03-06T08:34:03.322Z,5.60
2023-03-06T08:36:31.869Z,5.70
2023-03-06T08:39:00.457Z,5.80
2023-03-06T08:41:29.645Z,5.30
2023-03-06T08:43:58.042Z,5.80
2023-03-06T08:46:28.913Z,5.70
2023-03-06T08:48:57.848Z,6.00
2023-03-06T08:53:56.243Z,4.50
2023-03-06T08:56:30.007Z,6.00
2023-03-06T08:59:01.090Z,6.10
2023-03-06T09:01:31.986Z,6.60
2023-03-06T09:04:02.361Z,6.30
2023-03-06T09:06:33.539Z,6.30
2023-03-06T09:09:02.287Z,5.60
2023-03-06T09:13:59.248Z,4.60
2023-03-06T09:16:27.710Z,5.30
2023-03-06T09:18:57.855Z,5.90
2023-03-06T09:21:28.986Z,5.60
2023-03-06T09:23:57.676Z,6.10
2023-03-06T09:26:39.471Z,5.60
2023-03-06T09:29:12.811Z,6.10
2023-03-06T09:34:09.218Z,6.00
2023-03-06T09:36:49.502Z,5.50
2023-03-06T09:39:25.040Z,5.50
2023-03-06T09:41:54.365Z,4.80
2023-03-06T09:44:26.154Z,4.90
2023-03-06T09:47:22.237Z,4.40
2023-03-06T09:50:05.139Z,4.60
2023-03-06T09:52:41.506Z,5.00
2023-03-06T09:55:19.454Z,4.90
2023-03-06T09:58:07.447Z,4.60
2023-03-06T10:00:39.358Z,4.10
2023-03-06T10:03:31.211Z,4.40
2023-03-06T10:06:07.743Z,4.80
2023-03-06T10:08:57.206Z,3.40
2023-03-06T10:11:39.435Z,3.40
2023-03-06T10:14:16.574Z,4.10
2023-03-06T10:16:44.700Z,4.40
2023-03-06T10:19:20.708Z,3.80
2023-03-06T10:21:59.132Z,3.90
2023-03-06T10:24:47.663Z,4.00
2023-03-06T10:27:54.042Z,3.90
2023-03-06T10:30:40.547Z,4.70
2023-03-06T10:33:09.996Z,4.50
2023-03-06T10:38:19.297Z,4.00
2023-03-06T10:41:12.054Z,4.10
2023-03-06T10:44:05.323Z,4.80
2023-03-06T10:46:35.162Z,4.10
2023-03-06T10:49:06.609Z,4.20
2023-03-06T10:51:35.783Z,3.80
2023-03-06T10:54:19.240Z,4.10
2023-03-06T10:56:48.231Z,3.20
2023-03-06T10:59:17.334Z,3.00
2023-03-06T11:04:31.493Z,3.30
2023-03-06T11:07:19.540Z,3.80
2023-03-06T11:09:56.898Z,3.50
2023-03-06T11:12:37.523Z,4.40
2023-03-06T11:15:14.962Z,5.30
2023-03-06T11:17:58.172Z,4.50
2023-03-06T11:20:51.629Z,4.20
2023-03-06T11:23:35.694Z,5.10
2023-03-06T11:26:15.952Z,3.80
2023-03-06T11:29:08.570Z,4.00
2023-03-06T11:31:43.058Z,3.70
2023-03-06T11:34:42.568Z,3.60
2023-03-06T11:37:33.788Z,5.20
2023-03-06T11:40:13.072Z,3.90
2023-03-06T11:42:49.780Z,3.80
2023-03-06T11:45:26.857Z,4.80
2023-03-06T11:48:22.305Z,4.30
2023-03-06T11:50:53.806Z,4.90
2023-03-06T11:53:30.023Z,5.30
2023-03-06T11:56:19.799Z,4.30
2023-03-06T11:59:10.051Z,3.90
2023-03-06T12:01:45.323Z,4.30
2023-03-06T12:04:42.941Z,4.40
2023-03-06T12:07:29.743Z,3.90
2023-03-06T12:10:13.092Z,3.80
2023-03-06T12:13:13.632Z,4.20
2023-03-06T12:16:07.565Z,4.30
2023-03-06T12:18:54.315Z,4.30
2023-03-06T12:21:38.870Z,4.50
2023-03-06T12:24:16.045Z,4.70
2023-03-06T12:27:09.128Z,4.30
2023-03-06T12:29:56.090Z,4.50
2023-03-06T12:32:43.272Z,3.70
2023-03-06T12:35:30.574Z,4.00
2023-03-06T12:38:35.403Z,4.80
2023-03-06T12:41:23.238Z,4.60
2023-03-06T12:44:09.978Z,4.00
2023-03-06T12:46:45.156Z,4.10
2023-03-06T12:49:32.948Z,4.00
2023-03-06T12:52:05.066Z,4.60
2023-03-06T12:54:39.103Z,4.00
2023-03-06T12:57:10.073Z,4.60
2023-03-06T12:59:48.758Z,4.50
2023-03-06T13:05:22.367Z,3.90
2023-03-06T13:08:33.463Z,4.40
2023-03-06T13:11:32.151Z,4.20
2023-03-06T13:14:00.514Z,4.80
2023-03-06T13:16:32.241Z,4.70
2023-03-06T13:19:20.713Z,4.20
2023-03-06T13:21:54.700Z,4.10
2023-03-06T13:24:30.304Z,4.10
2023-03-06T13:27:10.526Z,4.30
2023-03-06T13:29:38.748Z,4.30
2023-03-06T13:32:18.782Z,4.20
2023-03-06T13:34:56.487Z,4.50
2023-03-06T13:37:25.200Z,4.50
2023-03-06T13:40:16.008Z,4.60
2023-03-06T13:42:44.197Z,2.90
2023-03-06T13:45:45.697Z,3.50
2023-03-06T13:48:43.522Z,4.00
2023-03-06T13:51:24.655Z,3.80
2023-03-06T13:54:34.667Z,4.00
2023-03-06T13:57:48.028Z,3.70
2023-03-06T14:00:35.052Z,3.50
2023-03-06T14:03:03.212Z,3.70
2023-03-06T14:05:44.520Z,4.20
2023-03-06T14:08:17.441Z,4.40
2023-03-06T14:10:48.636Z,3.80
2023-03-06T14:13:22.386Z,3.70
2023-03-06T14:15:53.232Z,3.60
2023-03-06T14:18:44.402Z,3.90
2023-03-06T14:21:14.592Z,4.30
2023-03-06T14:23:45.971Z,4.50
2023-03-06T14:26:35.274Z,5.00
2023-03-06T14:29:04.257Z,4.60
2023-03-06T14:31:36.487Z,5.50
2023-03-06T14:34:07.340Z,4.90
2023-03-06T14:36:48.595Z,4.80
2023-03-06T14:39:31.959Z,4.70
2023-03-06T14:42:17.439Z,4.60
2023-03-06T14:44:47.343Z,4.70
2023-03-06T14:47:31.423Z,4.20
2023-03-06T14:50:35.509Z,5.20
2023-03-06T14:53:06.810Z,4.30
2023-03-06T14:55:36.038Z,4.90
2023-03-06T14:58:28.351Z,4.10
2023-03-06T15:01:01.464Z,4.30
2023-03-06T15:03:43.392Z,4.90
2023-03-06T15:06:20.016Z,4.10
2023-03-06T15:08:57.388Z,4.40
2023-03-06T15:11:25.632Z,4.10
2023-03-06T15:14:02.092Z,5.10
2023-03-06T15:16:31.454Z,4.50
2023-03-06T15:21:37.693Z,4.80
2023-03-06T15:24:32.075Z,4.40
2023-03-06T15:27:04.215Z,4.60
2023-03-06T15:29:33.031Z,3.50
2023-03-06T15:32:34.924Z,4.70
2023-03-06T15:35:34.732Z,4.40
2023-03-06T15:38:24.517Z,4.40
2023-03-06T15:40:57.567Z,4.00
2023-03-06T15:43:25.850Z,4.40
2023-03-06T15:46:01.511Z,5.20
2023-03-06T15:48:29.699Z,4.50
2023-03-06T15:50:58.071Z,4.90
2023-03-06T15:53:26.313Z,4.60
2023-03-06T15:55:55.023Z,4.50
2023-03-06T15:58:26.745Z,4.80
2023-03-06T16:00:54.791Z,5.20
2023-03-06T16:03:23.032Z,5.20
2023-03-06T16:05:51.710Z,4.20
2023-03-06T16:08:19.886Z,5.90
2023-03-06T16:10:48.488Z,4.80
2023-03-06T16:13:23.815Z,4.30
2023-03-06T16:15:52.064Z,4.90
2023-03-06T16:18:20.264Z,5.80
2023-03-06T16:20:49.697Z,5.60
2023-03-06T16:23:18.045Z,5.70
2023-03-06T16:25:49.208Z,5.00
2023-03-06T16:28:17.796Z,4.90
2023-03-06T16:30:46.036Z,4.40
2023-03-06T16:33:14.744Z,3.60
2023-03-06T16:35:44.623Z,3.90
2023-03-06T16:38:12.839Z,3.50
2023-03-06T16:40:43.860Z,3.80
2023-03-06T16:43:13.668Z,3.70
2023-03-06T16:45:42.663Z,3.50
2023-03-06T16:48:16.981Z,3.50
2023-03-06T16:50:45.275Z,3.20
2023-03-06T16:53:14.196Z,3.30
2023-03-06T16:55:42.442Z,3.40
2023-03-06T16:58:10.612Z,3.70
2023-03-06T17:00:38.982Z,4.30
2023-03-06T17:03:07.475Z,4.90
2023-03-06T17:05:37.282Z,4.70
2023-03-06T17:08:05.767Z,4.80
2023-03-06T17:10:34.442Z,4.40
2023-03-06T17:13:02.831Z,4.30
2023-03-06T17:15:30.920Z,4.60
2023-03-06T17:17:59.178Z,5.00
2023-03-06T17:20:27.697Z,5.90
2023-03-06T17:22:56.017Z,5.10
2023-03-06T17:25:24.312Z,5.80
2023-03-06T17:27:52.710Z,6.20
2023-03-06T17:30:21.006Z,5.80
2023-03-06T17:32:49.365Z,4.80
2023-03-06T17:35:19.859Z,5.30
2023-03-06T17:37:48.267Z,5.40
2023-03-06T17:40:16.842Z,5.10
2023-03-06T17:43:05.498Z,5.20
2023-03-06T17:45:36.649Z,4.70
2023-03-06T17:48:05.017Z,4.90
2023-03-06T17:50:33.317Z,4.80
2023-03-06T17:53:01.460Z,4.70
2023-03-06T17:55:29.960Z,4.70
2023-03-06T17:57:57.994Z,14.40
2023-03-06T18:00:26.216Z,29.10
2023-03-06T18:02:54.273Z,31.20
2023-03-06T18:05:22.756Z,49.70
2023-03-06T18:07:50.929Z,49.10
2023-03-06T18:10:19.188Z,14.70
2023-03-06T18:12:47.476Z,56.30
2023-03-06T18:15:15.984Z,22.60
2023-03-06T18:17:44.244Z,6.50
2023-03-06T18:20:12.719Z,6.10
2023-03-06T18:22:40.927Z,5.60
2023-03-06T18:25:10.039Z,6.00
2023-03-06T18:27:38.175Z,5.80
2023-03-06T18:30:06.799Z,5.80
2023-03-06T18:32:35.348Z,6.00
2023-03-06T18:35:03.506Z,6.30
2023-03-06T18:37:31.601Z,5.80
2023-03-06T18:39:59.638Z,4.70
2023-03-06T18:42:27.830Z,6.00
2023-03-06T18:44:55.906Z,6.40
2023-03-06T18:47:23.911Z,6.00
2023-03-06T18:49:52.099Z,5.90
2023-03-06T18:52:20.532Z,6.10
2023-03-06T18:54:50.541Z,6.40
2023-03-06T18:57:18.801Z,6.30
2023-03-06T18:59:46.950Z,6.10
2023-03-06T19:02:15.175Z,6.90
2023-03-06T19:04:43.357Z,7.50
2023-03-06T19:07:13.818Z,62.50
2023-03-06T19:09:44.120Z,14.90
2023-03-06T19:12:12.811Z,9.00
2023-03-06T19:14:40.960Z,7.40
2023-03-06T19:17:09.458Z,7.60
2023-03-06T19:19:37.616Z,6.50
2023-03-06T19:22:05.902Z,5.90
2023-03-06T19:24:34.254Z,7.20
2023-03-06T19:27:02.446Z,8.80
2023-03-06T19:29:32.587Z,6.50
2023-03-06T19:32:01.396Z,6.50
2023-03-06T19:34:29.846Z,7.50
2023-03-06T19:36:57.876Z,7.00
2023-03-06T19:39:26.141Z,7.30
2023-03-06T19:41:54.203Z,7.60
2023-03-06T19:44:23.259Z,8.30
2023-03-06T19:46:51.336Z,11.20
2023-03-06T19:49:22.582Z,6.70
2023-03-06T19:51:50.690Z,4.80
2023-03-06T19:54:23.507Z,5.90
2023-03-06T19:56:51.713Z,5.20
2023-03-06T19:59:19.877Z,4.10
2023-03-06T20:01:48.036Z,4.10
2023-03-06T20:04:17.103Z,4.20
2023-03-06T20:06:46.802Z,4.60
2023-03-06T20:09:14.943Z,4.20
2023-03-06T20:11:43.217Z,5.10
2023-03-06T20:14:13.394Z,4.50
2023-03-06T20:16:41.534Z,4.70
2023-03-06T20:19:11.452Z,4.50
2023-03-06T20:21:39.590Z,5.10
2023-03-06T20:24:09.299Z,3.80
2023-03-06T20:26:38.628Z,4.90
2023-03-06T20:29:19.035Z,4.00
2023-03-06T20:31:47.181Z,4.80
2023-03-06T20:34:15.681Z,4.40
2023-03-06T20:36:44.065Z,5.10
2023-03-06T20:39:17.596Z,4.50
2023-03-06T20:41:46.852Z,4.30
2023-03-06T20:44:18.153Z,5.00
2023-03-06T20:46:46.826Z,5.60
2023-03-06T20:49:15.272Z,5.10
2023-03-06T20:51:43.578Z,5.20
2023-03-06T20:54:14.377Z,4.90
2023-03-06T20:56:46.009Z,5.10
2023-03-06T20:59:15.656Z,4.50
2023-03-06T21:01:45.402Z,4.30
2023-03-06T21:04:15.201Z,4.70
2023-03-06T21:06:46.669Z,4.20
2023-03-06T21:09:16.827Z,4.40
2023-03-06T21:11:46.017Z,3.70
2023-03-06T21:14:14.900Z,4.80
2023-03-06T21:16:43.441Z,4.60
2023-03-06T21:19:12.106Z,4.10
2023-03-06T21:21:40.802Z,5.30
2023-03-06T21:24:08.973Z,4.50
2023-03-06T21:26:37.285Z,4.90
2023-03-06T21:29:05.539Z,4.80
2023-03-06T21:31:34.373Z,5.20
2023-03-06T21:34:04.991Z,4.30
2023-03-06T21:36:33.737Z,4.50
2023-03-06T21:39:01.916Z,4.50
2023-03-06T21:42:04.295Z,5.00
2023-03-06T21:44:35.252Z,4.90
2023-03-06T21:47:12.376Z,4.40
2023-03-06T21:49:43.508Z,6.00
2023-03-06T21:52:11.861Z,10.00
2023-03-06T21:54:40.286Z,11.70
2023-03-06T21:57:08.463Z,13.40
2023-03-06T21:59:37.621Z,13.40
2023-03-06T22:02:06.278Z,12.80
2023-03-06T22:04:34.820Z,12.40
2023-03-06T22:07:03.040Z,6.10
2023-03-06T22:09:31.364Z,5.00
2023-03-06T22:11:59.789Z,5.20
2023-03-06T22:14:28.018Z,5.10
2023-03-06T22:16:58.889Z,4.80
2023-03-06T22:19:28.100Z,5.70
2023-03-06T22:24:24.397Z,4.50
2023-03-06T22:26:52.518Z,4.50
2023-03-06T22:29:20.712Z,5.30
2023-03-06T22:31:48.839Z,5.20
2023-03-06T22:34:17.274Z,5.90
2023-03-06T22:36:45.425Z,5.30
2023-03-06T22:39:14.626Z,5.30
2023-03-06T22:44:16.913Z,5.10
2023-03-06T22:46:46.204Z,5.20
2023-03-06T22:49:15.907Z,4.70
2023-03-06T22:51:43.996Z,5.50
2023-03-06T22:54:12.064Z,5.20
2023-03-06T22:56:40.128Z,4.90
2023-03-06T22:59:08.312Z,5.40
2023-03-06T23:01:36.513Z,5.90
2023-03-06T23:04:10.872Z,5.40
2023-03-06T23:06:41.851Z,5.10
2023-03-06T23:09:17.423Z,5.70
2023-03-06T23:12:04.340Z,6.20
2023-03-06T23:14:51.366Z,5.30
2023-03-06T23:17:37.935Z,5.60
2023-03-06T23:20:24.843Z,5.90
2023-03-06T23:23:11.655Z,5.50
2023-03-06T23:25:43.737Z,4.30
2023-03-06T23:28:12.228Z,4.60
2023-03-06T23:30:41.016Z,4.10
2023-03-06T23:33:09.800Z,4.60
2023-03-06T23:35:41.587Z,4.50
2023-03-06T23:38:09.860Z,4.80
2023-03-06T23:40:39.124Z,5.50
2023-03-06T23:43:07.492Z,4.90
2023-03-06T23:45:35.640Z,4.90
2023-03-06T23:48:07.130Z,4.80
2023-03-06T23:50:35.436Z,5.10
2023-03-06T23:53:03.583Z,5.20
2023-03-06T23:55:32.062Z,5.90
2023-03-06T23:58:00.230Z,4.40
